Time;durP1;ratioP1;P1;durP2;ratioP2;P2;SDS_P1;SDS_P2;PMS_P1;PMS_P2;Temp;Humidity;BMP_temperature;BMP_pressure;BME280_temperature;BME280_humidity;BME280_pressure;Samples;Min_cycle;Max_cycle;Signal;HPM_P1;HPM_P2
2021/08/24 00:00:52;;;;;;;13.60;7.10;;;;;;;16.58;64.93;99811.98;115363;1208;22323;-60
2021/08/24 00:03:20;;;;;;;10.90;5.80;;;;;;;16.63;65.06;99810.95;115273;1204;137394;-60
2021/08/24 00:05:49;;;;;;;18.20;7.10;;;;;;;16.69;65.05;99805.80;115344;1208;22243;-60
2021/08/24 00:08:17;;;;;;;13.80;7.40;;;;;;;16.74;64.99;99804.46;115315;1208;22595;-60
2021/08/24 00:10:48;;;;;;;14.20;7.10;;;;;;;16.79;64.87;99806.94;115282;1205;137461;-60
2021/08/24 00:13:17;;;;;;;15.70;7.10;;;;;;;16.85;65.40;99805.95;115376;1208;23116;-60
2021/08/24 00:15:45;;;;;;;18.90;7.40;;;;;;;16.87;65.75;99810.83;115253;1207;137729;-60
2021/08/24 00:18:14;;;;;;;17.90;7.70;;;;;;;16.88;65.57;99806.67;115359;1208;22949;-60
2021/08/24 00:20:43;;;;;;;20.30;7.50;;;;;;;16.88;65.75;99808.33;115354;1208;22367;-61
2021/08/24 00:23:13;;;;;;;21.00;7.80;;;;;;;16.89;66.19;99812.83;115214;1205;137469;-60
2021/08/24 00:25:42;;;;;;;19.20;7.30;;;;;;;16.87;66.80;99807.20;115408;1208;22304;-60
2021/08/24 00:28:10;;;;;;;18.60;7.10;;;;;;;16.84;67.25;99805.80;115234;1205;138002;-60
2021/08/24 00:30:38;;;;;;;15.70;7.20;;;;;;;16.78;66.97;99797.75;115312;1208;24635;-60
2021/08/24 00:33:07;;;;;;;18.30;8.40;;;;;;;16.77;66.97;99795.30;115280;1203;137700;-59
2021/08/24 00:35:38;;;;;;;17.70;7.80;;;;;;;16.76;66.90;99797.23;115340;1208;22325;-60
2021/08/24 00:38:08;;;;;;;17.60;7.30;;;;;;;16.76;66.86;99796.46;115376;1209;23032;-60
2021/08/24 00:40:36;;;;;;;12.70;6.70;;;;;;;16.75;67.49;99800.33;115328;1205;137332;-60
2021/08/24 00:43:06;;;;;;;13.10;7.00;;;;;;;16.74;67.79;99797.37;115289;1208;22392;-60
2021/08/24 00:45:34;;;;;;;14.10;7.20;;;;;;;16.72;68.21;99794.11;115210;1204;139045;-60
2021/08/24 00:48:02;;;;;;;12.60;6.80;;;;;;;16.70;68.38;99795.55;115465;1208;22310;-60
2021/08/24 00:50:38;;;;;;;15.90;7.10;;;;;;;16.68;68.27;99791.94;115335;1214;22334;-60
2021/08/24 00:53:11;;;;;;;19.50;7.20;;;;;;;16.67;66.95;99796.52;115175;1204;137626;-59
2021/08/24 00:55:41;;;;;;;16.80;7.20;;;;;;;16.69;64.55;99793.25;115342;1207;22226;-60
2021/08/24 00:58:10;;;;;;;12.50;6.70;;;;;;;16.75;63.39;99790.65;115215;1205;137499;-60
2021/08/24 01:00:42;;;;;;;9.90;7.00;;;;;;;16.84;62.57;99791.60;115315;1207;22943;-60
2021/08/24 01:03:22;;;;;;;11.80;6.20;;;;;;;16.93;61.82;99791.65;115271;1205;137485;-60
2021/08/24 01:05:52;;;;;;;15.20;6.40;;;;;;;17.04;61.16;99794.38;115367;1207;22243;-60
2021/08/24 01:08:27;;;;;;;13.40;6.80;;;;;;;17.12;60.65;99792.30;115285;1208;22324;-60
2021/08/24 01:11:16;;;;;;;13.40;6.20;;;;;;;17.21;60.42;99797.58;115278;1204;137969;-60
2021/08/24 01:14:02;;;;;;;12.60;6.50;;;;;;;17.28;60.19;99793.48;115334;1207;22301;-60
2021/08/24 01:16:42;;;;;;;11.80;6.90;;;;;;;17.36;60.16;99790.77;115215;1206;137485;-60
2021/08/24 01:19:43;;;;;;;9.70;6.00;;;;;;;17.42;60.30;99788.89;115348;1207;23082;-60
2021/08/24 01:22:29;;;;;;;11.10;7.10;;;;;;;17.47;60.13;99786.27;114874;1202;137841;-60
2021/08/24 01:25:03;;;;;;;11.20;7.30;;;;;;;17.51;60.09;99779.98;115089;1212;22248;-60
2021/08/24 01:27:39;;;;;;;10.30;6.50;;;;;;;17.55;60.15;99778.73;114843;1208;137806;-60
2021/08/24 01:30:35;;;;;;;9.60;6.90;;;;;;;17.58;59.96;99773.23;114989;1213;23360;-60
2021/08/24 01:33:18;;;;;;;18.50;7.70;;;;;;;17.62;60.32;99767.81;115073;1211;22306;-60
2021/08/24 01:36:04;;;;;;;10.50;7.20;;;;;;;17.65;60.40;99764.65;114907;1211;138696;-60
2021/08/24 01:38:35;;;;;;;10.80;7.10;;;;;;;17.67;60.55;99760.83;114950;1214;22178;-60
2021/08/24 01:41:09;;;;;;;10.20;6.70;;;;;;;17.68;60.55;99759.89;111408;1208;138833;-59
2021/08/24 01:43:45;;;;;;;13.80;7.40;;;;;;;17.70;60.46;99760.85;114989;1218;23419;-60
2021/08/24 01:46:38;;;;;;;12.80;6.70;;;;;;;17.71;60.62;99757.70;114842;1208;138551;-60
2021/08/24 01:49:06;;;;;;;11.10;6.60;;;;;;;17.72;60.44;99755.74;114759;1216;22351;-60
2021/08/24 01:51:48;;;;;;;14.00;7.10;;;;;;;17.73;60.61;99755.45;114702;1211;138344;-59
2021/08/24 01:54:26;;;;;;;12.50;7.20;;;;;;;17.71;60.43;99751.18;114747;1218;22291;-60
2021/08/24 01:56:55;;;;;;;9.70;7.10;;;;;;;17.69;60.50;99749.78;114756;1219;22375;-60
2021/08/24 01:59:32;;;;;;;11.20;6.80;;;;;;;17.64;60.29;99748.13;114784;1211;137328;-60
2021/08/24 02:02:06;;;;;;;13.90;7.70;;;;;;;17.60;60.48;99743.33;115018;1211;22365;-60
2021/08/24 02:04:37;;;;;;;8.90;7.00;;;;;;;17.58;60.51;99742.75;114969;1208;138840;-60
2021/08/24 02:07:20;;;;;;;10.20;7.20;;;;;;;17.57;60.63;99743.11;115063;1211;24073;-59
2021/08/24 02:09:49;;;;;;;11.90;7.40;;;;;;;17.56;61.67;99742.77;114887;1208;138656;-60
2021/08/24 02:12:22;;;;;;;13.50;7.50;;;;;;;17.57;63.05;99742.11;115013;1211;22265;-60
2021/08/24 02:14:50;;;;;;;12.30;7.20;;;;;;;17.58;64.20;99740.73;115044;1218;22219;-60
2021/08/24 02:17:19;;;;;;;11.70;8.00;;;;;;;17.57;64.11;99741.29;115111;1206;139317;-60
2021/08/24 02:19:52;;;;;;;11.70;7.20;;;;;;;17.54;64.32;99738.95;115091;1211;22464;-60
2021/08/24 02:22:29;;;;;;;10.20;6.80;;;;;;;17.53;63.93;99740.23;115099;1205;138816;-60
2021/08/24 02:25:06;;;;;;;10.70;7.50;;;;;;;17.52;64.47;99739.64;115165;1211;22782;-60
2021/08/24 02:27:36;;;;;;;11.10;7.70;;;;;;;17.50;64.71;99737.20;115284;1211;138629;-60
2021/08/24 02:30:14;;;;;;;12.90;8.10;;;;;;;17.45;64.30;99734.08;115450;1206;22741;-60
2021/08/24 02:32:44;;;;;;;11.30;7.10;;;;;;;17.40;64.29;99730.40;115428;1205;22914;-60
2021/08/24 02:35:20;;;;;;;13.40;7.70;;;;;;;17.34;63.66;99732.23;115209;1205;137542;-60
2021/08/24 02:38:02;;;;;;;14.50;7.80;;;;;;;17.29;64.06;99731.23;115403;1208;22301;-60
2021/08/24 02:40:37;;;;;;;14.90;7.80;;;;;;;17.27;65.16;99730.98;115402;1202;140006;-60
2021/08/24 02:43:12;;;;;;;11.20;7.80;;;;;;;17.25;66.16;99730.06;115421;1208;22323;-60
2021/08/24 02:45:42;;;;;;;10.00;6.60;;;;;;;17.19;66.64;99728.70;115338;1202;140199;-60
2021/08/24 02:48:10;;;;;;;14.80;8.10;;;;;;;17.13;65.97;99730.19;115405;1208;23028;-60
2021/08/24 02:50:39;;;;;;;13.30;8.20;;;;;;;17.09;64.65;99731.16;115341;1211;22334;-60
2021/08/24 02:53:09;;;;;;;12.70;9.00;;;;;;;17.09;64.18;99727.70;115394;1201;138092;-60
2021/08/24 02:55:37;;;;;;;14.40;8.30;;;;;;;17.11;64.09;99728.17;115562;1205;22466;-60
2021/08/24 02:58:05;;;;;;;16.10;8.60;;;;;;;17.12;64.75;99727.33;115478;1203;137950;-60
2021/08/24 03:00:33;;;;;;;12.90;8.60;;;;;;;17.13;65.45;99731.50;115539;1205;22964;-60
2021/08/24 03:03:01;;;;;;;12.10;7.80;;;;;;;17.12;66.03;99732.85;115619;1205;22293;-60
2021/08/24 03:05:30;;;;;;;13.10;7.30;;;;;;;17.08;66.24;99728.04;115476;1201;137822;-60
2021/08/24 03:07:58;;;;;;;15.90;8.40;;;;;;;17.01;66.41;99724.71;115581;1203;22439;-60
2021/08/24 03:10:27;;;;;;;13.80;8.60;;;;;;;16.94;66.79;99725.96;115455;1202;139116;-60
2021/08/24 03:13:09;;;;;;;13.90;8.70;;;;;;;16.88;67.10;99722.25;115499;1211;23139;-60
2021/08/24 03:15:53;;;;;;;14.40;8.10;;;;;;;16.81;67.40;99720.63;115338;1204;138066;-60
2021/08/24 03:18:25;;;;;;;16.30;8.70;;;;;;;16.76;67.51;99720.40;115602;1205;22342;-60
2021/08/24 03:20:57;;;;;;;12.40;8.10;;;;;;;16.72;67.17;99719.70;115527;1205;22323;-60
2021/08/24 03:23:26;;;;;;;16.90;9.00;;;;;;;16.72;66.83;99720.31;115327;1201;137878;-60
2021/08/24 03:25:54;;;;;;;16.50;8.10;;;;;;;16.73;67.11;99720.73;115506;1205;22403;-60
2021/08/24 03:28:23;;;;;;;19.20;9.30;;;;;;;16.74;67.38;99724.17;115402;1201;139818;-60
2021/08/24 03:30:51;;;;;;;18.50;8.50;;;;;;;16.72;67.49;99718.10;115522;1205;22948;-60
2021/08/24 03:33:19;;;;;;;21.30;9.30;;;;;;;16.70;67.20;99721.52;115528;1205;22350;-60
2021/08/24 03:35:47;;;;;;;15.90;9.20;;;;;;;16.65;67.00;99723.18;115481;1202;137542;-59
2021/08/24 03:38:15;;;;;;;13.40;8.70;;;;;;;16.59;66.94;99722.88;115553;1204;22348;-60
2021/08/24 03:40:44;;;;;;;12.80;8.90;;;;;;;16.56;66.70;99722.11;112692;1201;138122;-59
2021/08/24 03:43:12;;;;;;;16.20;9.10;;;;;;;16.53;66.55;99720.65;111500;1203;24020;-59
2021/08/24 03:45:40;;;;;;;15.40;9.20;;;;;;;16.53;66.55;99723.24;111478;1200;138157;-59
2021/08/24 03:48:08;;;;;;;17.70;9.40;;;;;;;16.54;66.74;99727.13;111582;1205;24089;-59
2021/08/24 03:50:36;;;;;;;14.20;9.20;;;;;;;16.56;66.69;99728.92;115444;1205;22285;-60
2021/08/24 03:53:04;;;;;;;20.20;10.70;;;;;;;16.60;66.82;99732.61;115552;1199;137876;-60
2021/08/24 03:55:33;;;;;;;13.90;8.70;;;;;;;16.64;66.86;99735.13;115766;1202;22291;-60
2021/08/24 03:58:00;;;;;;;14.50;9.00;;;;;;;16.68;67.41;99736.42;115637;1198;138176;-60
2021/08/24 04:00:31;;;;;;;13.80;9.00;;;;;;;16.68;67.61;99739.05;115717;1203;22434;-60
2021/08/24 04:03:00;;;;;;;15.00;10.10;;;;;;;16.65;67.22;99740.63;115784;1202;23295;-60
2021/08/24 04:05:29;;;;;;;17.70;8.90;;;;;;;16.61;67.02;99736.52;115617;1202;137910;-60
2021/08/24 04:07:57;;;;;;;13.60;9.30;;;;;;;16.58;67.19;99735.24;115710;1202;22309;-60
2021/08/24 04:10:25;;;;;;;14.60;9.50;;;;;;;16.57;67.33;99734.86;115664;1198;138374;-60
2021/08/24 04:13:05;;;;;;;12.30;9.40;;;;;;;16.58;67.61;99737.00;115696;1203;22322;-60
2021/08/24 04:15:34;;;;;;;14.90;8.70;;;;;;;16.60;67.57;99734.54;115575;1203;138121;-60
2021/08/24 04:18:03;;;;;;;14.30;9.20;;;;;;;16.61;67.67;99736.89;115780;1202;22253;-60
2021/08/24 04:20:32;;;;;;;14.90;9.10;;;;;;;16.62;67.76;99735.35;115776;1202;22351;-60
2021/08/24 04:23:00;;;;;;;16.60;9.80;;;;;;;16.64;67.71;99738.92;115335;1201;138022;-60
2021/08/24 04:25:28;;;;;;;18.20;9.60;;;;;;;16.66;68.03;99738.97;115773;1202;22053;-59
2021/08/24 04:27:56;;;;;;;15.30;10.00;;;;;;;16.69;67.73;99739.65;115530;1200;138423;-60
2021/08/24 04:30:24;;;;;;;19.40;10.40;;;;;;;16.72;67.58;99739.63;115731;1209;23267;-59
2021/08/24 04:32:52;;;;;;;18.50;10.00;;;;;;;16.76;67.64;99738.19;115673;1205;23312;-60
2021/08/24 04:35:20;;;;;;;17.40;10.70;;;;;;;16.81;67.67;99744.35;115631;1199;138061;-60
2021/08/24 04:37:48;;;;;;;16.90;10.90;;;;;;;16.85;67.66;99745.85;115712;1202;22275;-60
2021/08/24 04:40:16;;;;;;;18.40;11.80;;;;;;;16.91;67.59;99746.96;113629;1202;138734;-60
2021/08/24 04:42:44;;;;;;;20.00;12.20;;;;;;;16.98;67.74;99744.37;111485;1202;22442;-60
2021/08/24 04:45:13;;;;;;;21.00;12.60;;;;;;;17.05;67.82;99745.14;115548;1203;23191;-60
2021/08/24 04:47:41;;;;;;;21.50;12.50;;;;;;;17.11;68.03;99746.98;115711;1198;137683;-60
2021/08/24 04:50:10;;;;;;;20.70;12.20;;;;;;;17.19;68.05;99744.57;115729;1206;22352;-60
2021/08/24 04:52:38;;;;;;;20.90;11.80;;;;;;;17.25;67.99;99737.98;115629;1202;138852;-61
2021/08/24 04:55:08;;;;;;;27.10;12.30;;;;;;;17.33;67.89;99740.29;115782;1206;22222;-61
2021/08/24 04:57:36;;;;;;;18.40;11.00;;;;;;;17.42;67.80;99738.86;115504;1198;138719;-61
2021/08/24 05:00:05;;;;;;;18.40;11.00;;;;;;;17.50;67.59;99741.42;115662;1205;22325;-60
2021/08/24 05:02:39;;;;;;;17.80;11.10;;;;;;;17.60;67.49;99742.29;115719;1205;22393;-65
2021/08/24 05:05:08;;;;;;;21.40;11.90;;;;;;;17.70;67.35;99743.38;115598;1202;138818;-64
2021/08/24 05:07:35;;;;;;;15.10;11.10;;;;;;;17.79;66.84;99742.17;115793;1203;22333;-62
2021/08/24 05:10:07;;;;;;;21.00;12.20;;;;;;;17.88;66.28;99741.23;115680;1202;139097;-65
2021/08/24 05:12:35;;;;;;;19.70;10.70;;;;;;;17.99;65.95;99743.67;115726;1203;23022;-65
2021/08/24 05:15:04;;;;;;;24.00;11.40;;;;;;;18.08;65.62;99743.46;115738;1202;22356;-65
2021/08/24 05:17:32;;;;;;;18.10;12.70;;;;;;;18.17;65.67;99744.95;115518;1205;138740;-64
2021/08/24 05:20:00;;;;;;;26.90;12.70;;;;;;;18.27;65.45;99744.73;115718;1206;22305;-66
2021/08/24 05:22:28;;;;;;;20.20;11.90;;;;;;;18.36;65.46;99743.55;115639;1203;137984;-61
2021/08/24 05:24:56;;;;;;;16.40;11.10;;;;;;;18.47;65.01;99740.55;115692;1202;23271;-61
2021/08/24 05:27:24;;;;;;;16.80;11.00;;;;;;;18.57;65.24;99741.41;115661;1205;22317;-61
2021/08/24 05:29:52;;;;;;;14.70;10.80;;;;;;;18.69;64.73;99740.05;115560;1198;137645;-61
2021/08/24 05:32:20;;;;;;;20.00;10.30;;;;;;;18.82;64.58;99743.25;115713;1205;22284;-61
2021/08/24 05:34:48;;;;;;;14.70;10.70;;;;;;;18.95;63.83;99741.10;115633;1198;138783;-61
2021/08/24 05:37:17;;;;;;;16.70;10.30;;;;;;;19.15;63.62;99740.08;115692;1202;22305;-61
2021/08/24 05:39:44;;;;;;;16.70;10.90;;;;;;;19.39;63.07;99737.48;115630;1198;138414;-61
2021/08/24 05:42:13;;;;;;;15.80;10.50;;;;;;;19.63;61.79;99738.35;115785;1210;22285;-61
2021/08/24 05:44:41;;;;;;;17.50;10.90;;;;;;;19.83;61.42;99738.31;115729;1202;22443;-61
2021/08/24 05:47:09;;;;;;;16.60;9.30;;;;;;;19.98;60.76;99733.31;115598;1199;137970;-61
2021/08/24 05:49:38;;;;;;;16.40;9.80;;;;;;;20.09;60.57;99732.45;115760;1202;22842;-61
2021/08/24 05:52:09;;;;;;;18.00;9.90;;;;;;;20.20;60.02;99730.04;115479;1200;138580;-61
2021/08/24 05:54:37;;;;;;;17.90;9.60;;;;;;;20.27;59.66;99730.08;115568;1204;22339;-61
2021/08/24 05:57:05;;;;;;;30.20;10.50;;;;;;;20.31;58.66;99725.04;115762;1205;22363;-61
2021/08/24 05:59:34;;;;;;;15.60;7.70;;;;;;;20.36;58.33;99725.35;115568;1199;138341;-61
2021/08/24 06:02:02;;;;;;;19.40;8.30;;;;;;;20.41;58.31;99723.19;115690;1203;22376;-62
2021/08/24 06:04:31;;;;;;;12.50;9.00;;;;;;;20.46;58.26;99718.40;115506;1205;139467;-61
2021/08/24 06:06:59;;;;;;;16.30;9.90;;;;;;;20.51;57.96;99716.15;115716;1202;22346;-61
2021/08/24 06:09:27;;;;;;;13.80;8.40;;;;;;;20.54;57.67;99716.13;115671;1204;22305;-61
2021/08/24 06:11:55;;;;;;;14.30;9.30;;;;;;;20.56;57.58;99714.52;115630;1201;137787;-61
2021/08/24 06:14:24;;;;;;;15.80;8.90;;;;;;;20.59;57.51;99720.79;115701;1202;22316;-61
2021/08/24 06:16:56;;;;;;;20.10;9.80;;;;;;;20.64;57.83;99720.05;115535;1200;137499;-61
2021/08/24 06:19:25;;;;;;;25.20;9.00;;;;;;;20.69;57.92;99718.90;115790;1202;22341;-61
2021/08/24 06:21:55;;;;;;;26.00;9.40;;;;;;;20.75;57.58;99723.50;115444;1199;137651;-61
2021/08/24 06:24:23;;;;;;;14.00;8.90;;;;;;;20.82;57.24;99723.96;115663;1197;22374;-61
2021/08/24 06:26:51;;;;;;;24.30;9.40;;;;;;;20.88;56.48;99724.65;115661;1205;22326;-60
2021/08/24 06:29:19;;;;;;;13.20;8.50;;;;;;;20.95;56.51;99723.16;115621;1199;137265;-61
2021/08/24 06:31:50;;;;;;;17.60;9.10;;;;;;;21.01;56.39;99725.46;115713;1202;22372;-61
2021/08/24 06:34:18;;;;;;;15.40;8.70;;;;;;;21.08;55.71;99725.30;115403;1202;137334;-61
2021/08/24 06:36:47;;;;;;;15.50;8.80;;;;;;;21.12;55.86;99726.23;115700;1202;22315;-61
2021/08/24 06:39:15;;;;;;;11.60;7.90;;;;;;;21.16;55.93;99727.13;115448;1208;22447;-61
2021/08/24 06:41:43;;;;;;;13.80;7.80;;;;;;;21.18;56.04;99723.86;115575;1199;138153;-61
2021/08/24 06:44:11;;;;;;;18.70;8.40;;;;;;;21.21;55.86;99724.39;115698;1203;22309;-61
2021/08/24 06:46:39;;;;;;;16.30;8.70;;;;;;;21.26;55.52;99722.92;115532;1198;137542;-61
2021/08/24 06:49:07;;;;;;;17.40;8.60;;;;;;;21.29;56.01;99723.00;115748;1202;23095;-61
2021/08/24 06:51:36;;;;;;;15.30;8.60;;;;;;;21.34;56.09;99729.34;115540;1199;138256;-60
2021/08/24 06:54:06;;;;;;;17.00;8.90;;;;;;;21.38;55.53;99727.63;115687;1202;23198;-61
2021/08/24 06:56:34;;;;;;;14.70;8.50;;;;;;;21.42;56.00;99724.42;115609;1204;22366;-61
2021/08/24 06:59:03;;;;;;;17.20;7.60;;;;;;;21.45;55.93;99725.14;115590;1199;138296;-61
2021/08/24 07:01:35;;;;;;;14.60;8.10;;;;;;;21.50;55.34;99723.05;115570;1205;23107;-61
2021/08/24 07:04:03;;;;;;;17.30;8.70;;;;;;;21.56;55.28;99721.52;115603;1199;137347;-61
2021/08/24 07:06:37;;;;;;;15.70;8.40;;;;;;;21.62;55.33;99714.48;115629;1204;22320;-61
2021/08/24 07:09:05;;;;;;;10.70;7.40;;;;;;;21.69;54.90;99713.00;115689;1202;22339;-61
2021/08/24 07:11:34;;;;;;;12.50;8.10;;;;;;;21.76;54.61;99715.55;115601;1199;137188;-61
2021/08/24 07:14:03;;;;;;;14.00;8.60;;;;;;;21.83;54.48;99710.34;115647;1204;22300;-61
2021/08/24 07:16:31;;;;;;;15.00;8.30;;;;;;;21.88;54.12;99708.06;115608;1198;138475;-61
2021/08/24 07:18:59;;;;;;;12.90;7.90;;;;;;;21.95;54.17;99709.22;115616;1205;23417;-61
2021/08/24 07:21:28;;;;;;;15.50;8.40;;;;;;;22.03;54.00;99705.66;115682;1202;22338;-61
2021/08/24 07:23:56;;;;;;;14.20;7.70;;;;;;;22.11;54.03;99704.35;115646;1198;136908;-61
2021/08/24 07:26:24;;;;;;;15.30;7.80;;;;;;;22.19;53.80;99701.61;115681;1202;22360;-61
2021/08/24 07:28:53;;;;;;;12.10;8.30;;;;;;;22.24;53.65;99695.65;115611;1198;137270;-62
2021/08/24 07:31:21;;;;;;;11.30;6.60;;;;;;;22.34;53.09;99699.17;115742;1202;22335;-61
2021/08/24 07:33:49;;;;;;;10.00;6.10;;;;;;;22.44;52.59;99696.16;115588;1202;138506;-61
2021/08/24 07:36:17;;;;;;;11.30;6.80;;;;;;;22.53;52.77;99696.77;115729;1204;22451;-61
2021/08/24 07:38:45;;;;;;;8.80;6.10;;;;;;;22.60;52.18;99693.75;115744;1203;22588;-61
2021/08/24 07:41:13;;;;;;;8.20;5.90;;;;;;;22.69;51.93;99690.95;115341;1201;137054;-62
2021/08/24 07:43:41;;;;;;;13.10;5.70;;;;;;;22.76;51.47;99692.57;115736;1202;22348;-61
2021/08/24 07:46:10;;;;;;;8.20;6.00;;;;;;;22.80;51.40;99688.27;115625;1199;137780;-61
2021/08/24 07:48:38;;;;;;;12.80;5.60;;;;;;;22.91;51.24;99691.34;115722;1208;22384;-61
2021/08/24 07:51:06;;;;;;;7.70;5.40;;;;;;;23.00;50.44;99684.77;115686;1202;22209;-61
2021/08/24 07:53:35;;;;;;;7.70;5.10;;;;;;;23.11;49.60;99682.27;115635;1199;138327;-61
2021/08/24 07:56:04;;;;;;;8.60;5.40;;;;;;;23.20;49.10;99682.95;115529;1205;22330;-61
2021/08/24 07:58:32;;;;;;;10.00;5.70;;;;;;;23.26;48.22;99680.46;115598;1199;136860;-61
2021/08/24 08:01:00;;;;;;;11.20;5.80;;;;;;;23.34;48.77;99676.88;115747;1204;22282;-61
2021/08/24 08:03:29;;;;;;;8.60;6.10;;;;;;;23.42;48.59;99677.59;115706;1210;22359;-61
2021/08/24 08:05:58;;;;;;;7.50;5.20;;;;;;;23.50;47.52;99672.11;115633;1200;136790;-61
2021/08/24 08:08:26;;;;;;;6.60;5.30;;;;;;;23.57;47.48;99680.41;115715;1202;23017;-61
2021/08/24 08:10:56;;;;;;;6.90;4.90;;;;;;;23.62;47.08;99676.45;115468;1199;136809;-62
2021/08/24 08:13:27;;;;;;;7.00;5.40;;;;;;;23.65;47.38;99677.91;115692;1209;22358;-61
2021/08/24 08:15:55;;;;;;;7.60;4.90;;;;;;;23.68;46.89;99675.20;115612;1199;137270;-61
2021/08/24 08:18:24;;;;;;;7.30;4.50;;;;;;;23.70;46.38;99677.44;115597;1204;22911;-62
2021/08/24 08:20:52;;;;;;;17.50;5.40;;;;;;;23.71;46.43;99672.89;115714;1202;22344;-61
2021/08/24 08:23:20;;;;;;;8.90;5.10;;;;;;;23.73;46.91;99675.91;115599;1199;137897;-61
2021/08/24 08:25:48;;;;;;;5.50;3.90;;;;;;;23.77;47.12;99676.54;115663;1203;22314;-61
2021/08/24 08:28:17;;;;;;;11.00;4.70;;;;;;;23.83;46.94;99670.84;115524;1201;137416;-61
2021/08/24 08:30:45;;;;;;;10.60;5.90;;;;;;;23.89;46.07;99667.97;115792;1202;22374;-61
2021/08/24 08:33:14;;;;;;;7.80;4.00;;;;;;;23.93;45.82;99665.45;115711;1202;23103;-61
2021/08/24 08:35:42;;;;;;;9.30;4.80;;;;;;;23.98;45.72;99667.89;115624;1199;137277;-61
2021/08/24 08:38:10;;;;;;;9.50;4.90;;;;;;;24.02;45.57;99665.41;115722;1203;22309;-62
2021/08/24 08:41:03;;;;;;;7.70;4.30;;;;;;;24.06;45.48;99666.75;115560;1199;137008;-61
2021/08/24 08:43:42;;;;;;;7.10;5.80;;;;;;;24.10;45.23;99666.66;115562;1204;22291;-62
2021/08/24 08:46:35;;;;;;;9.40;4.80;;;;;;;24.15;45.17;99668.08;115470;1200;140533;-62
2021/08/24 08:49:03;;;;;;;5.50;4.40;;;;;;;24.20;45.07;99662.95;115612;1203;22322;-62
2021/08/24 08:51:55;;;;;;;7.20;4.50;;;;;;;24.25;44.27;99666.09;115571;1199;138062;-62
2021/08/24 08:54:27;;;;;;;10.00;4.30;;;;;;;24.30;44.24;99660.37;115716;1204;23276;-62
2021/08/24 08:57:15;;;;;;;5.90;4.10;;;;;;;24.34;43.78;99659.94;115657;1204;22318;-62
2021/08/24 08:59:49;;;;;;;8.20;3.50;;;;;;;24.39;43.59;99658.75;115502;1201;136893;-62
2021/08/24 09:02:45;;;;;;;6.50;4.50;;;;;;;24.42;43.39;99651.86;115719;1202;22311;-62
2021/08/24 09:05:14;;;;;;;7.20;3.90;;;;;;;24.45;43.44;99647.04;115458;1201;137875;-62
2021/08/24 09:07:46;;;;;;;5.50;3.60;;;;;;;24.50;43.15;99646.27;115590;1207;23411;-62
2021/08/24 09:10:17;;;;;;;6.90;3.90;;;;;;;24.55;43.11;99650.05;115472;1202;137924;-62
2021/08/24 09:12:52;;;;;;;13.30;4.40;;;;;;;24.59;42.95;99645.60;115751;1202;22219;-62
2021/08/24 09:15:24;;;;;;;7.90;4.70;;;;;;;24.64;42.44;99647.05;115554;1204;22285;-62
2021/08/24 09:17:52;;;;;;;7.70;4.50;;;;;;;24.69;42.28;99647.41;115396;1201;136836;-62
2021/08/24 09:20:26;;;;;;;5.80;3.80;;;;;;;24.73;41.90;99644.90;115561;1204;23179;-62
2021/08/24 09:22:54;;;;;;;6.50;4.30;;;;;;;24.76;41.56;99641.91;115433;1201;138624;-62
2021/08/24 09:25:29;;;;;;;6.70;3.40;;;;;;;24.79;41.72;99644.19;115666;1204;22278;-62
2021/08/24 09:28:03;;;;;;;5.90;3.20;;;;;;;24.83;41.28;99641.80;115457;1199;137373;-62
2021/08/24 09:30:31;;;;;;;5.20;3.80;;;;;;;24.85;41.46;99641.08;115620;1204;22365;-62
2021/08/24 09:33:04;;;;;;;8.50;3.90;;;;;;;24.88;41.40;99637.70;115667;1204;23371;-62
2021/08/24 09:35:37;;;;;;;8.90;3.90;;;;;;;24.90;41.81;99640.55;115621;1199;137512;-60
2021/08/24 09:38:15;;;;;;;7.00;3.10;;;;;;;24.91;41.53;99636.60;115620;1204;22329;-62
2021/08/24 09:40:49;;;;;;;9.30;3.70;;;;;;;24.92;41.29;99632.23;115560;1200;137801;-65
2021/08/24 09:43:34;;;;;;;7.00;3.80;;;;;;;24.92;41.59;99628.36;115766;1202;22095;-65
2021/08/24 09:46:21;;;;;;;6.10;3.80;;;;;;;24.95;41.66;99628.70;115638;1200;137153;-65
2021/08/24 09:49:06;;;;;;;5.20;3.70;;;;;;;24.98;41.89;99626.45;115581;1204;22375;-65
2021/08/24 09:51:56;;;;;;;13.80;4.50;;;;;;;25.01;41.87;99628.32;115543;1204;23351;-65
2021/08/24 09:54:33;;;;;;;10.50;4.20;;;;;;;25.06;41.82;99626.15;115560;1204;22180;-66
2021/08/24 09:57:11;;;;;;;11.30;4.80;;;;;;;25.10;41.84;99620.23;115538;1205;22317;-65
2021/08/24 09:59:48;;;;;;;6.50;4.20;;;;;;;25.17;41.77;99622.28;115430;1202;137765;-65
2021/08/24 10:02:35;;;;;;;7.80;3.60;;;;;;;25.25;40.68;99620.74;115554;1204;23514;-65
2021/08/24 10:05:24;;;;;;;9.70;4.00;;;;;;;25.28;39.07;99621.71;115606;1199;138221;-65
2021/08/24 10:07:54;;;;;;;6.70;3.80;;;;;;;25.27;39.39;99622.24;115631;1209;22387;-66
2021/08/24 10:10:24;;;;;;;4.50;3.00;;;;;;;25.24;39.34;99617.39;115655;1199;137609;-65
2021/08/24 10:12:52;;;;;;;6.10;3.30;;;;;;;25.21;39.71;99611.90;115712;1203;23206;-65
2021/08/24 10:15:32;;;;;;;10.10;3.80;;;;;;;25.22;40.05;99609.77;115717;1205;22270;-65
2021/08/24 10:18:06;;;;;;;4.60;3.90;;;;;;;25.25;40.55;99606.11;115661;1201;139728;-65
2021/08/24 10:20:51;;;;;;;11.20;4.20;;;;;;;25.31;40.52;99604.90;115707;1204;22285;-65
2021/08/24 10:23:22;;;;;;;4.60;3.30;;;;;;;25.36;39.97;99604.59;115613;1199;137784;-65
2021/08/24 10:25:52;;;;;;;6.50;3.30;;;;;;;25.41;40.11;99599.14;115612;1204;22143;-65
2021/08/24 10:28:25;;;;;;;5.90;3.40;;;;;;;25.44;40.10;99600.36;115398;1202;137111;-65
2021/08/24 10:31:00;;;;;;;3.80;3.30;;;;;;;25.49;40.41;99601.53;115710;1204;23017;-65
2021/08/24 10:33:35;;;;;;;5.10;3.30;;;;;;;25.52;39.54;99592.77;115750;1210;22090;-64
2021/08/24 10:36:12;;;;;;;5.70;3.90;;;;;;;25.54;39.50;99593.52;115442;1200;137204;-65
2021/08/24 10:38:43;;;;;;;6.20;4.20;;;;;;;25.57;39.79;99593.44;115733;1203;22590;-65
2021/08/24 10:41:34;;;;;;;10.50;3.50;;;;;;;25.61;39.58;99593.35;115682;1199;137019;-62
2021/08/24 10:44:28;;;;;;;10.00;3.30;;;;;;;25.66;39.11;99588.88;115745;1202;23072;-62
2021/08/24 10:46:59;;;;;;;3.70;3.10;;;;;;;25.71;38.97;99584.15;115591;1202;137497;-62
2021/08/24 10:49:27;;;;;;;16.70;4.10;;;;;;;25.74;38.39;99576.48;115749;1203;22333;-62
2021/08/24 10:52:01;;;;;;;11.00;3.90;;;;;;;25.76;38.89;99575.75;115571;1204;22199;-62
2021/08/24 10:54:35;;;;;;;4.80;3.60;;;;;;;25.80;38.81;99570.85;115414;1201;138141;-62
2021/08/24 10:57:25;;;;;;;9.00;3.30;;;;;;;25.84;37.85;99563.98;115522;1202;22235;-62
2021/08/24 11:00:37;;;;;;;8.30;3.20;;;;;;;25.86;38.10;99570.45;115581;1199;136841;-62
2021/08/24 11:03:24;;;;;;;5.50;3.20;;;;;;;25.88;37.66;99567.37;115362;1207;22454;-60
2021/08/24 11:06:18;;;;;;;4.20;3.30;;;;;;;25.88;37.51;99565.79;115178;1203;137136;-61
2021/08/24 11:09:16;;;;;;;7.00;3.90;;;;;;;25.87;37.28;99563.44;115053;1212;22354;-60
2021/08/24 11:12:07;;;;;;;8.80;4.10;;;;;;;25.84;37.33;99557.39;114901;1208;137276;-60
2021/08/24 11:14:58;;;;;;;4.60;3.70;;;;;;;25.83;36.16;99556.95;115157;1210;23410;-61
2021/08/24 11:17:39;;;;;;;7.20;3.40;;;;;;;25.83;36.34;99559.81;114985;1206;137155;-60
2021/08/24 11:20:16;;;;;;;4.40;3.30;;;;;;;25.83;37.09;99550.65;115101;1212;22401;-61
2021/08/24 11:22:47;;;;;;;13.70;4.50;;;;;;;25.86;37.25;99546.27;115004;1207;137755;-60
2021/08/24 11:25:36;;;;;;;6.70;3.50;;;;;;;25.90;37.30;99541.60;115069;1210;22359;-60
2021/08/24 11:28:22;;;;;;;7.70;3.40;;;;;;;25.98;37.46;99537.31;115070;1210;22354;-60
2021/08/24 11:30:57;;;;;;;4.50;3.40;;;;;;;26.04;38.00;99532.23;115071;1216;22362;-60
2021/08/24 11:33:34;;;;;;;5.70;3.70;;;;;;;26.12;37.12;99527.45;115148;1210;22375;-60
2021/08/24 11:36:05;;;;;;;6.20;3.60;;;;;;;26.17;36.12;99533.64;114858;1208;139189;-60
2021/08/24 11:38:34;;;;;;;5.60;4.20;;;;;;;26.19;36.29;99529.33;115282;1212;22421;-60